Fisherville, Pennsylvania
Current Conditions -  °F | °C
As of 9:58 AM on Sunday 21 Dec 2014 (Local Time) from KMUI Reporting Station
Overcast Overcast  
Wind Chill: 31°   Ceiling: 2500
Heat Index: 31°   Visibility: 10mi
Dew Point: 21°   Wind: 3mph
Humidity: 67%   Direction: 320°NW
Pressure: 30.35"   Gusts: NA
Location:  40.4949°N, 76.8115°W
Report Text: KMUI 211458Z AUTO 32003KT 10SM OVC025 00/M06 A3035 RMK AO2 SLP286 T10041059 52012
Loading
Personal Weather Stations






























Interactive Weather Map New forecast layout! Learn more

10-Day Weather Forecast

Advertisements
Track Severe Weather on mobile